Time;durP1;ratioP1;P1;durP2;ratioP2;P2;SDS_P1;SDS_P2;PMS_P1;PMS_P2;Temp;Humidity;BMP_temperature;BMP_pressure;BME280_temperature;BME280_humidity;BME280_pressure;Samples;Min_cycle;Max_cycle;Signal;HPM_P1;HPM_P2
2022/08/06 00:02:54;;;;;;;10.60;7.60;;;;;;;23.38;66.65;101014.50;10580629;28;20043;-80
2022/08/06 00:07:57;;;;;;;12.95;8.30;;;;;;;23.30;67.26;101017.50;10580779;28;20051;-79
2022/08/06 00:13:00;;;;;;;12.88;8.02;;;;;;;23.19;66.88;101008.78;10591916;28;20509;-77
2022/08/06 00:18:02;;;;;;;12.73;7.53;;;;;;;23.15;67.16;101003.09;10570671;28;20046;-82
2022/08/06 00:23:05;;;;;;;9.10;7.20;;;;;;;23.14;66.88;100997.84;10570778;28;20448;-81
2022/08/06 00:28:07;;;;;;;10.35;7.43;;;;;;;23.11;67.20;100992.97;10590563;28;20031;-78
2022/08/06 00:33:09;;;;;;;10.75;7.38;;;;;;;23.08;67.32;100991.72;10591821;28;20973;-82
2022/08/06 00:38:12;;;;;;;10.68;8.05;;;;;;;23.02;67.50;100997.91;10555351;28;20035;-81
2022/08/06 00:43:15;;;;;;;12.13;7.95;;;;;;;22.95;67.79;100994.91;10569258;28;20036;-79
2022/08/06 00:48:18;;;;;;;13.20;7.38;;;;;;;22.86;68.12;100983.84;10568960;28;20051;-80
2022/08/06 00:53:22;;;;;;;12.43;7.68;;;;;;;22.88;68.64;100987.09;10588536;28;20394;-79
2022/08/06 00:58:25;;;;;;;10.38;7.70;;;;;;;22.87;67.52;100991.06;10568431;28;20036;-78
2022/08/06 01:03:27;;;;;;;12.98;8.68;;;;;;;22.85;68.56;100977.44;10585721;28;20066;-78
2022/08/06 01:08:30;;;;;;;11.98;7.53;;;;;;;22.78;68.22;100976.41;10588104;28;20112;-79
2022/08/06 01:13:32;;;;;;;12.98;7.90;;;;;;;22.78;68.37;100971.63;10569945;28;20043;-77
2022/08/06 01:18:58;;;;;;;12.55;7.35;;;;;;;22.81;68.49;100970.09;10585200;28;20441;-79
2022/08/06 01:24:28;;;;;;;11.38;7.93;;;;;;;22.75;68.51;100969.53;10568520;28;20052;-82
2022/08/06 01:29:36;;;;;;;11.52;8.00;;;;;;;22.71;68.44;100965.00;10569216;28;20554;-80
2022/08/06 01:34:42;;;;;;;13.27;7.63;;;;;;;22.66;68.48;100959.66;10570132;28;20042;-80
2022/08/06 01:39:57;;;;;;;10.43;7.25;;;;;;;22.62;68.45;100951.16;10550338;28;20036;-77
2022/08/06 01:45:01;;;;;;;11.70;7.57;;;;;;;22.62;69.08;100950.34;10566957;28;20043;-76
2022/08/06 01:50:07;;;;;;;11.23;8.07;;;;;;;22.52;68.90;100946.88;10566338;28;20032;-80
2022/08/06 01:55:13;;;;;;;10.88;7.63;;;;;;;22.49;69.16;100950.38;10565170;28;20039;-77
2022/08/06 02:00:16;;;;;;;13.30;7.72;;;;;;;22.46;70.06;100948.28;10570495;28;20444;-76
2022/08/06 02:05:20;;;;;;;11.38;6.97;;;;;;;22.37;69.65;100944.00;10597540;28;20035;-76
2022/08/06 02:10:24;;;;;;;12.40;7.75;;;;;;;22.33;70.09;100948.69;10584855;28;20039;-76
2022/08/06 02:15:28;;;;;;;11.80;8.07;;;;;;;22.25;70.83;100947.66;10613429;28;20059;-76
2022/08/06 02:20:42;;;;;;;9.80;7.47;;;;;;;22.20;70.24;100945.09;10594311;28;20059;-76
2022/08/06 02:25:46;;;;;;;9.75;7.45;;;;;;;22.14;71.34;100938.94;10547222;28;20043;-76
2022/08/06 02:30:51;;;;;;;13.38;8.65;;;;;;;22.16;71.31;100928.22;10594605;28;20042;-76
2022/08/06 02:36:02;;;;;;;9.90;7.25;;;;;;;22.16;71.50;100935.78;10557763;28;20459;-76
2022/08/06 02:41:15;;;;;;;10.55;8.02;;;;;;;22.19;71.28;100941.47;10555477;28;20440;-76
2022/08/06 02:46:24;;;;;;;11.55;7.75;;;;;;;22.13;71.31;100930.91;10601975;28;20039;-77
2022/08/06 02:51:40;;;;;;;10.55;7.38;;;;;;;22.10;71.17;100935.22;10579838;28;20058;-76
2022/08/06 02:56:45;;;;;;;10.80;8.03;;;;;;;22.16;71.99;100939.38;10585264;28;20039;-77
2022/08/06 03:01:55;;;;;;;12.95;8.18;;;;;;;22.24;71.49;100941.25;10554385;28;20130;-76
2022/08/06 03:07:00;;;;;;;13.18;8.05;;;;;;;22.37;71.51;100933.63;10560910;28;20520;-77
2022/08/06 03:12:04;;;;;;;11.30;8.38;;;;;;;22.55;70.88;100923.78;10559628;28;20044;-77
2022/08/06 03:17:07;;;;;;;12.63;8.07;;;;;;;22.76;70.39;100923.59;10566842;28;20540;-76
2022/08/06 03:22:11;;;;;;;13.20;8.70;;;;;;;22.93;69.88;100914.09;10558929;28;20052;-77
2022/08/06 03:27:15;;;;;;;12.75;7.40;;;;;;;23.05;68.66;100911.22;10541487;28;20040;-76
2022/08/06 03:32:18;;;;;;;12.55;8.05;;;;;;;23.25;68.50;100905.72;10569459;28;20225;-76
2022/08/06 03:37:21;;;;;;;15.50;8.32;;;;;;;23.62;67.15;100895.09;10567230;28;20515;-76
2022/08/06 03:42:23;;;;;;;9.77;7.45;;;;;;;23.81;67.12;100899.97;10579014;28;20039;-76
2022/08/06 03:47:34;;;;;;;13.18;8.20;;;;;;;24.08;65.85;100896.16;10583259;28;20036;-77
2022/08/06 03:52:40;;;;;;;12.38;8.02;;;;;;;24.40;63.83;100899.69;10572988;28;20040;-76
2022/08/06 03:57:48;;;;;;;9.80;7.93;;;;;;;24.54;63.77;100887.97;10574148;28;20040;-76
2022/08/06 04:02:52;;;;;;;10.73;7.82;;;;;;;24.95;61.97;100881.53;10580193;28;20664;-76
2022/08/06 04:07:58;;;;;;;14.00;9.40;;;;;;;25.18;61.93;100869.56;10561470;28;20051;-76
2022/08/06 04:13:03;;;;;;;15.52;7.70;;;;;;;25.45;60.61;100870.41;10570761;28;20043;-76
2022/08/06 04:18:08;;;;;;;11.90;7.97;;;;;;;25.89;59.40;100876.34;10575293;28;20046;-76
2022/08/06 04:23:12;;;;;;;12.43;7.63;;;;;;;26.13;58.81;100867.44;10571753;28;20046;-76
2022/08/06 04:28:15;;;;;;;13.25;8.13;;;;;;;26.57;57.93;100866.00;10567940;28;20028;-76
2022/08/06 04:33:20;;;;;;;11.07;7.88;;;;;;;26.86;56.37;100869.94;10578186;28;20039;-77
2022/08/06 04:38:23;;;;;;;16.50;7.80;;;;;;;26.91;56.85;100859.16;10569431;28;20032;-76
2022/08/06 04:43:26;;;;;;;11.00;7.80;;;;;;;27.27;55.46;100859.50;10569910;28;20516;-76
2022/08/06 04:48:28;;;;;;;13.13;8.82;;;;;;;27.52;54.78;100856.88;10567891;28;20042;-77
2022/08/06 04:53:39;;;;;;;13.23;8.23;;;;;;;27.85;54.70;100848.28;10549013;28;20407;-79
2022/08/06 04:58:42;;;;;;;12.10;8.15;;;;;;;28.05;52.98;100839.50;10586498;28;20039;-77
2022/08/06 05:03:44;;;;;;;10.75;8.90;;;;;;;28.33;53.00;100848.13;10564593;28;20142;-76
2022/08/06 05:08:53;;;;;;;15.02;8.15;;;;;;;28.61;51.67;100835.31;10591687;28;20413;-77
2022/08/06 05:14:12;;;;;;;11.20;7.85;;;;;;;28.86;51.02;100833.38;10563540;28;20040;-77
2022/08/06 05:19:17;;;;;;;9.40;7.35;;;;;;;29.20;49.92;100833.00;10555014;28;20039;-76
2022/08/06 05:24:21;;;;;;;12.07;8.13;;;;;;;29.65;49.52;100825.72;10576313;28;20039;-77
2022/08/06 05:29:23;;;;;;;13.90;8.43;;;;;;;30.01;48.53;100821.56;10585071;28;20051;-77
2022/08/06 05:34:25;;;;;;;12.95;7.80;;;;;;;30.25;47.88;100825.56;10608788;28;20106;-77
2022/08/06 05:39:28;;;;;;;13.75;8.07;;;;;;;30.48;47.45;100827.84;10575886;28;20047;-77
2022/08/06 05:44:30;;;;;;;12.50;7.97;;;;;;;30.68;46.58;100833.84;10565582;28;20036;-78
2022/08/06 05:49:44;;;;;;;10.13;8.18;;;;;;;30.87;46.43;100824.81;10595287;28;20719;-78
2022/08/06 05:55:04;;;;;;;12.77;8.35;;;;;;;30.90;45.88;100823.19;10584046;28;20032;-78
2022/08/06 06:00:11;;;;;;;11.55;7.88;;;;;;;31.25;44.99;100822.13;10582063;28;20379;-77
2022/08/06 06:05:15;;;;;;;10.65;8.02;;;;;;;31.45;44.76;100828.81;10569830;28;20089;-78
2022/08/06 06:10:22;;;;;;;9.63;7.70;;;;;;;31.45;44.21;100823.16;10595513;28;20078;-78
2022/08/06 06:15:25;;;;;;;10.38;7.95;;;;;;;31.69;44.47;100821.28;10595022;28;20039;-77
2022/08/06 06:21:10;;;;;;;12.48;7.78;;;;;;;32.00;44.45;100818.53;10579250;28;20048;-77
2022/08/06 06:26:39;;;;;;;12.55;8.43;;;;;;;32.16;43.17;100824.44;10540117;28;20055;-78
2022/08/06 06:32:12;;;;;;;11.52;7.43;;;;;;;32.42;43.05;100814.38;10562718;28;20448;-78
2022/08/06 06:37:19;;;;;;;14.73;8.50;;;;;;;32.57;42.91;100812.13;10588322;28;20043;-78
2022/08/06 06:42:39;;;;;;;12.60;8.15;;;;;;;32.42;42.83;100799.34;10574297;28;20542;-78
2022/08/06 06:47:44;;;;;;;15.82;8.15;;;;;;;32.76;42.56;100804.94;10564346;28;20524;-78
2022/08/06 06:52:49;;;;;;;14.15;8.13;;;;;;;32.94;42.50;100802.66;10602728;28;20047;-78
2022/08/06 06:57:56;;;;;;;12.30;8.43;;;;;;;33.09;42.02;100786.97;10568498;28;20598;-78
2022/08/06 07:02:59;;;;;;;11.88;8.50;;;;;;;33.50;41.36;100789.53;10559091;28;20048;-78
2022/08/06 07:08:03;;;;;;;10.88;7.82;;;;;;;34.01;40.60;100783.66;10561617;28;20503;-77
2022/08/06 07:13:12;;;;;;;10.63;8.05;;;;;;;34.10;40.33;100778.97;10564041;28;20036;-77
2022/08/06 07:18:15;;;;;;;11.50;7.70;;;;;;;34.35;39.52;100764.22;10571914;28;20043;-77
2022/08/06 07:23:18;;;;;;;16.27;8.98;;;;;;;34.44;39.17;100755.88;10562053;28;20036;-77
2022/08/06 07:28:25;;;;;;;11.45;7.57;;;;;;;34.39;39.05;100745.00;10572886;28;20039;-78
2022/08/06 07:33:28;;;;;;;13.50;8.13;;;;;;;34.22;39.75;100746.19;10569846;28;20039;-78
2022/08/06 07:38:33;;;;;;;12.93;8.68;;;;;;;34.33;39.18;100746.72;10576952;28;20555;-78
2022/08/06 07:43:40;;;;;;;11.50;8.05;;;;;;;33.99;39.61;100744.22;10566360;28;20047;-78
2022/08/06 07:48:47;;;;;;;15.23;8.23;;;;;;;33.93;39.52;100743.16;10576491;27;20390;-78
2022/08/06 07:53:50;;;;;;;14.68;7.25;;;;;;;33.51;40.34;100730.59;10569900;28;20050;-78
2022/08/06 07:58:53;;;;;;;12.90;7.85;;;;;;;33.67;40.24;100727.81;10574237;28;20063;-78
2022/08/06 08:09:21;;;;;;;12.70;8.15;;;;;;;33.94;39.73;100724.81;10579746;28;20043;-78
2022/08/06 08:14:25;;;;;;;14.82;7.70;;;;;;;33.94;39.87;100718.31;10602444;28;20047;-79
2022/08/06 08:19:32;;;;;;;11.95;7.90;;;;;;;34.19;39.84;100721.41;10596619;28;20493;-79
2022/08/06 08:24:36;;;;;;;13.70;8.38;;;;;;;34.29;39.82;100708.19;10582876;28;20039;-78
2022/08/06 08:29:39;;;;;;;12.40;7.20;;;;;;;34.17;39.44;100710.47;10585428;28;20046;-78
2022/08/06 08:34:41;;;;;;;9.00;7.57;;;;;;;34.25;39.40;100716.81;10597559;28;20505;-78
2022/08/06 08:40:09;;;;;;;10.32;7.50;;;;;;;34.18;38.77;100697.00;10594753;28;20379;-77
2022/08/06 08:45:12;;;;;;;10.00;6.72;;;;;;;34.08;39.48;100695.22;10597841;28;20040;-78
2022/08/06 08:50:16;;;;;;;10.10;7.28;;;;;;;34.25;39.16;100691.19;10591973;28;20027;-78
2022/08/06 08:55:22;;;;;;;8.85;6.65;;;;;;;33.83;39.80;100692.88;10579495;28;20043;-79
2022/08/06 09:00:25;;;;;;;11.10;7.57;;;;;;;33.69;40.65;100696.88;10591162;28;20046;-80
2022/08/06 09:05:27;;;;;;;14.32;7.22;;;;;;;33.52;40.29;100689.50;10612878;28;20488;-79
2022/08/06 09:10:30;;;;;;;10.75;7.25;;;;;;;33.46;40.25;100689.19;10575190;28;20039;-79
2022/08/06 09:15:33;;;;;;;9.38;6.93;;;;;;;33.31;39.98;100681.34;10605010;28;20043;-80
2022/08/06 09:20:36;;;;;;;8.05;5.15;;;;;;;33.32;40.32;100661.00;10588847;28;20127;-81
2022/08/06 09:25:42;;;;;;;7.72;5.45;;;;;;;33.03;40.36;100660.75;10587139;28;20379;-79
2022/08/06 09:30:45;;;;;;;;;;;;;;;32.67;41.04;100658.53;10584100;28;20031;-80
2022/08/06 09:36:06;;;;;;;10.27;5.95;;;;;;;32.15;42.07;100646.78;10542638;28;20194;-79
2022/08/06 09:41:11;;;;;;;8.85;5.47;;;;;;;31.73;42.28;100631.16;10582034;28;20556;-78
2022/08/06 09:46:15;;;;;;;9.25;5.80;;;;;;;31.33;43.47;100638.53;10579140;28;20043;-76
2022/08/06 09:51:21;;;;;;;7.22;5.88;;;;;;;31.03;44.11;100617.38;10588171;28;20031;-78
2022/08/06 09:56:25;;;;;;;7.72;5.97;;;;;;;30.64;44.89;100612.13;10603914;28;20406;-80
2022/08/06 10:01:28;;;;;;;8.63;5.85;;;;;;;30.47;45.85;100588.38;10584538;28;20059;-79
2022/08/06 10:06:30;;;;;;;7.93;5.60;;;;;;;30.34;46.43;100570.28;10589786;28;20540;-78
2022/08/06 10:11:35;;;;;;;8.60;6.13;;;;;;;30.29;46.40;100573.56;10598541;28;20481;-78
2022/08/06 10:16:37;;;;;;;10.27;6.22;;;;;;;30.10;46.13;100555.13;10597877;28;20036;-77
2022/08/06 10:21:43;;;;;;;10.50;6.55;;;;;;;29.97;47.17;100540.63;10596708;28;20039;-77
2022/08/06 10:26:46;;;;;;;8.13;5.82;;;;;;;29.99;46.99;100526.06;10604223;28;20047;-77
2022/08/06 10:31:49;;;;;;;9.13;6.35;;;;;;;30.01;46.77;100532.13;10581428;28;20059;-78
2022/08/06 10:36:58;;;;;;;9.43;5.82;;;;;;;29.92;47.12;100520.47;10583506;28;20068;-78
2022/08/06 10:42:02;;;;;;;6.65;5.53;;;;;;;29.79;47.51;100508.06;10607274;28;20052;-76
2022/08/06 10:47:04;;;;;;;9.93;7.25;;;;;;;29.74;47.34;100503.66;10586118;28;20054;-78
2022/08/06 10:52:06;;;;;;;7.20;5.32;;;;;;;29.78;47.47;100498.75;10587524;28;20043;-76
2022/08/06 10:57:12;;;;;;;11.80;6.20;;;;;;;29.94;47.05;100509.56;10577618;28;20055;-77
2022/08/06 11:02:48;;;;;;;10.13;6.18;;;;;;;29.92;46.74;100503.50;10589610;28;20036;-77
2022/08/06 11:07:59;;;;;;;6.78;5.70;;;;;;;29.83;46.22;100492.66;10604510;28;20044;-77
2022/08/06 11:13:35;;;;;;;8.75;6.55;;;;;;;29.76;46.89;100466.47;10606509;28;20533;-77
2022/08/06 11:18:57;;;;;;;11.40;7.37;;;;;;;29.71;47.03;100450.75;10544927;28;20420;-77
2022/08/06 11:24:01;;;;;;;8.90;5.55;;;;;;;29.77;46.64;100462.41;10569218;28;20042;-77
2022/08/06 11:29:05;;;;;;;8.60;6.03;;;;;;;29.83;47.21;100455.06;10604003;28;20043;-77
2022/08/06 11:34:10;;;;;;;9.38;7.15;;;;;;;29.71;47.07;100459.22;10605386;28;20449;-77
2022/08/06 11:39:12;;;;;;;9.07;6.78;;;;;;;29.65;47.41;100449.56;10569661;28;20036;-77
2022/08/06 11:44:18;;;;;;;12.32;7.05;;;;;;;29.56;47.16;100452.88;10577096;28;20429;-77
2022/08/06 11:49:35;;;;;;;8.30;5.60;;;;;;;29.45;46.95;100437.97;10594282;28;20421;-78
2022/08/06 11:54:44;;;;;;;9.50;6.45;;;;;;;29.27;47.93;100418.31;10593612;28;20046;-78
2022/08/06 12:00:01;;;;;;;10.93;5.45;;;;;;;29.13;48.21;100427.69;10611773;28;20036;-79
2022/08/06 12:05:03;;;;;;;15.40;6.28;;;;;;;29.05;48.54;100445.09;10613697;28;20036;-79
2022/08/06 12:10:06;;;;;;;10.43;6.15;;;;;;;28.99;47.70;100514.56;10585164;28;20489;-78
2022/08/06 12:15:11;;;;;;;5.18;2.65;;;;;;;28.13;45.53;100525.97;10601752;28;20054;-85
2022/08/06 12:20:13;;;;;;;6.35;2.13;;;;;;;26.92;47.20;100513.56;10584228;28;20043;-78
2022/08/06 12:25:15;;;;;;;5.97;2.47;;;;;;;26.30;49.85;100491.06;10596132;28;20046;-79
2022/08/06 12:30:18;;;;;;;3.05;2.50;;;;;;;25.80;52.42;100483.03;10585114;28;20422;-78
2022/08/06 12:35:20;;;;;;;6.50;2.70;;;;;;;25.35;55.01;100467.34;10591092;28;20056;-78
2022/08/06 12:40:26;;;;;;;3.40;2.70;;;;;;;24.93;58.66;100457.22;10606529;28;20047;-78
2022/08/06 12:45:30;;;;;;;3.73;2.77;;;;;;;24.74;60.21;100521.91;10582749;28;20051;-78
2022/08/06 12:50:35;;;;;;;8.93;3.38;;;;;;;24.08;66.15;100466.41;10610041;28;20063;-79
2022/08/06 12:55:52;;;;;;;5.82;3.05;;;;;;;22.88;71.33;100567.38;10596877;28;20043;-79
2022/08/06 13:00:56;;;;;;;4.25;2.42;;;;;;;21.89;75.44;100627.19;10556476;28;20051;-78
2022/08/06 13:06:01;;;;;;;3.08;1.58;;;;;;;21.23;78.85;100680.69;10597162;28;20200;-78
2022/08/06 13:11:03;;;;;;;4.18;1.48;;;;;;;20.63;81.41;100641.34;10577417;28;20418;-78
2022/08/06 13:16:12;;;;;;;3.30;1.67;;;;;;;20.21;82.18;100684.50;10600625;28;20055;-81
2022/08/06 13:21:24;;;;;;;4.47;1.77;;;;;;;20.01;83.18;100661.94;10585890;28;20539;-80
2022/08/06 13:26:30;;;;;;;4.28;1.92;;;;;;;19.89;84.65;100656.31;10617018;28;20075;-79
2022/08/06 13:31:33;;;;;;;1.98;1.60;;;;;;;19.80;85.63;100652.81;10588528;28;20048;-80
2022/08/06 13:36:38;;;;;;;2.80;1.63;;;;;;;19.75;86.19;100676.09;10591223;28;20036;-80
2022/08/06 13:41:40;;;;;;;3.30;2.20;;;;;;;19.84;86.92;100685.19;10598334;28;20043;-79
2022/08/06 13:46:43;;;;;;;2.63;1.63;;;;;;;19.88;86.90;100683.34;10572681;28;20047;-80
2022/08/06 13:51:45;;;;;;;3.03;1.90;;;;;;;19.90;86.99;100666.28;10539078;28;20040;-80
2022/08/06 13:56:48;;;;;;;4.53;2.40;;;;;;;20.06;88.31;100646.97;10555483;28;20501;-80
2022/08/06 14:01:51;;;;;;;3.78;2.50;;;;;;;20.04;89.03;100650.09;10573091;28;20047;-80
2022/08/06 14:06:55;;;;;;;4.55;2.33;;;;;;;20.06;90.27;100664.47;10578943;28;20105;-79
2022/08/06 14:11:59;;;;;;;3.20;1.73;;;;;;;20.01;89.82;100677.81;10580863;28;20043;-81
2022/08/06 14:17:02;;;;;;;4.40;1.45;;;;;;;19.70;89.89;100669.94;10596086;28;20043;-82
2022/08/06 14:22:07;;;;;;;1.42;1.17;;;;;;;19.55;89.99;100658.28;10597538;28;20043;-80
2022/08/06 14:27:10;;;;;;;1.88;1.10;;;;;;;19.52;89.52;100661.72;10614282;28;20417;-80
2022/08/06 14:32:12;;;;;;;3.13;1.13;;;;;;;19.17;89.69;100652.00;10596500;28;20040;-80
2022/08/06 14:37:14;;;;;;;3.63;1.15;;;;;;;18.94;89.90;100671.81;10614147;28;20043;-80
2022/08/06 14:47:37;;;;;;;2.65;1.23;;;;;;;18.94;91.47;100685.72;10613766;28;20143;-79
2022/08/06 14:52:43;;;;;;;2.30;1.20;;;;;;;18.82;91.65;100671.72;10612758;28;20046;-80
2022/08/06 14:57:45;;;;;;;1.65;1.10;;;;;;;18.77;92.03;100676.66;10571214;28;20044;-81
2022/08/06 15:02:48;;;;;;;3.22;1.58;;;;;;;18.66;92.42;100679.81;10586362;28;20048;-79
2022/08/06 15:07:50;;;;;;;2.90;1.30;;;;;;;18.83;92.89;100690.03;10583767;28;20054;-82
2022/08/06 15:12:52;;;;;;;2.42;1.23;;;;;;;18.88;92.86;100686.22;10586340;28;20055;-81
2022/08/06 15:17:54;;;;;;;2.17;1.45;;;;;;;18.87;92.87;100682.63;10570720;28;20039;-82
2022/08/06 15:22:57;;;;;;;3.80;1.30;;;;;;;18.71;93.03;100680.75;10570621;28;20076;-81
2022/08/06 15:27:59;;;;;;;2.15;1.10;;;;;;;18.76;92.82;100677.81;10552269;28;20058;-79
2022/08/06 15:33:01;;;;;;;2.42;1.38;;;;;;;18.70;92.88;100670.78;10570503;28;20047;-80
2022/08/06 15:38:03;;;;;;;4.13;1.50;;;;;;;18.79;93.72;100685.47;10570420;28;20048;-81
2022/08/06 15:43:06;;;;;;;2.50;1.48;;;;;;;18.72;93.72;100688.75;10535175;28;20043;-81
2022/08/06 15:48:08;;;;;;;2.45;1.27;;;;;;;18.74;93.33;100707.88;10535258;28;20046;-79
2022/08/06 15:53:10;;;;;;;1.75;1.42;;;;;;;18.68;93.38;100715.59;10569442;28;20051;-81
2022/08/06 15:58:13;;;;;;;2.33;1.60;;;;;;;18.71;92.91;100731.59;10570053;28;20040;-82
2022/08/06 16:03:15;;;;;;;2.08;1.48;;;;;;;18.50;91.81;100737.06;10570091;28;20499;-80
2022/08/06 16:08:17;;;;;;;3.75;1.40;;;;;;;18.34;91.74;100755.41;10568702;28;20063;-83
2022/08/06 16:13:19;;;;;;;2.90;1.05;;;;;;;18.20;91.16;100766.69;10550918;28;20048;-84
2022/08/06 16:18:22;;;;;;;2.28;1.13;;;;;;;17.95;89.83;100787.00;10586916;28;20043;-82
2022/08/06 16:23:24;;;;;;;3.17;1.00;;;;;;;17.67;88.36;100800.31;10576128;28;20036;-80
2022/08/06 16:28:27;;;;;;;2.63;0.95;;;;;;;17.54;87.53;100807.69;10574185;28;20067;-82
2022/08/06 16:33:29;;;;;;;1.15;0.90;;;;;;;17.43;86.88;100795.25;10572570;28;20040;-81
2022/08/06 16:38:32;;;;;;;0.80;0.80;;;;;;;17.36;87.22;100792.13;10609201;28;20525;-79
2022/08/06 16:43:34;;;;;;;3.75;1.35;;;;;;;17.24;87.53;100803.03;10610740;28;20520;-79
2022/08/06 16:48:36;;;;;;;0.95;0.75;;;;;;;17.09;86.30;100805.09;10551766;28;20047;-79
2022/08/06 16:53:38;;;;;;;1.83;0.80;;;;;;;17.04;85.52;100804.44;10571405;28;20055;-78
2022/08/06 16:58:40;;;;;;;3.58;1.15;;;;;;;16.91;85.39;100797.84;10611644;28;20044;-78
2022/08/06 17:03:43;;;;;;;5.00;1.00;;;;;;;16.87;85.35;100810.72;10599726;28;20043;-79
2022/08/06 17:08:45;;;;;;;3.05;0.85;;;;;;;16.74;85.77;100806.09;10617636;28;20036;-79
2022/08/06 17:13:48;;;;;;;2.28;0.90;;;;;;;16.67;86.58;100791.88;10617804;28;20047;-79
2022/08/06 17:18:50;;;;;;;3.63;1.10;;;;;;;16.72;87.00;100783.41;10615208;28;20039;-78
2022/08/06 17:23:54;;;;;;;3.15;1.00;;;;;;;16.70;87.52;100792.06;10610314;28;20409;-78
2022/08/06 17:28:57;;;;;;;0.75;0.60;;;;;;;16.66;88.22;100801.28;10573945;28;20048;-78
2022/08/06 17:33:59;;;;;;;3.58;2.03;;;;;;;16.58;89.32;100825.84;10571118;28;20173;-83
2022/08/06 17:39:03;;;;;;;3.30;1.70;;;;;;;16.68;90.13;100819.28;10617337;28;20040;-83
2022/08/06 17:44:05;;;;;;;1.50;0.88;;;;;;;16.82;90.39;100799.75;10616681;28;20152;-82
2022/08/06 17:49:07;;;;;;;0.95;0.77;;;;;;;16.87;90.07;100781.06;10614206;28;20044;-82
2022/08/06 17:54:10;;;;;;;1.50;0.80;;;;;;;17.12;89.18;100776.72;10597993;28;20031;-83
2022/08/06 17:59:12;;;;;;;3.22;1.63;;;;;;;17.12;88.50;100798.91;10581280;28;20039;-84
2022/08/06 18:04:15;;;;;;;2.75;1.23;;;;;;;17.23;87.92;100793.06;10614312;28;20079;-82
2022/08/06 18:09:17;;;;;;;2.45;1.08;;;;;;;17.41;87.73;100797.53;10597689;28;20492;-83
2022/08/06 18:14:19;;;;;;;2.45;0.95;;;;;;;17.56;87.08;100801.81;10615312;28;20054;-85
2022/08/06 18:19:22;;;;;;;1.75;1.20;;;;;;;17.76;86.50;100790.09;10597610;28;20413;-82
2022/08/06 18:24:24;;;;;;;3.65;1.05;;;;;;;17.95;85.90;100792.53;10597961;28;20039;-81
2022/08/06 18:29:26;;;;;;;1.05;0.90;;;;;;;18.08;84.90;100780.47;10614397;28;20054;-82
2022/08/06 18:34:29;;;;;;;3.22;1.02;;;;;;;18.15;84.79;100780.75;10596655;28;20051;-81
2022/08/06 18:39:31;;;;;;;2.10;0.95;;;;;;;18.22;83.67;100774.69;10613163;28;20043;-83
2022/08/06 18:44:34;;;;;;;1.88;1.08;;;;;;;18.27;83.71;100772.59;10609738;28;20505;-85
2022/08/06 18:49:42;;;;;;;1.30;0.95;;;;;;;18.32;83.76;100760.47;10561245;28;20164;-86
2022/08/06 18:54:46;;;;;;;2.58;1.02;;;;;;;18.37;83.24;100768.63;10574980;28;20654;-85
2022/08/06 18:59:51;;;;;;;1.27;1.02;;;;;;;18.39;83.35;100755.22;10608523;28;20031;-85
2022/08/06 19:04:54;;;;;;;2.05;0.88;;;;;;;18.31;82.59;100759.66;10588173;28;20047;-85
2022/08/06 19:09:56;;;;;;;2.38;1.30;;;;;;;18.26;82.33;100742.38;10546576;28;20043;-83
2022/08/06 19:14:58;;;;;;;3.08;1.00;;;;;;;18.29;82.42;100744.47;10611956;28;20062;-85
2022/08/06 19:20:03;;;;;;;3.45;1.17;;;;;;;18.30;81.46;100738.59;10591925;28;20493;-85
2022/08/06 19:25:05;;;;;;;1.27;0.73;;;;;;;18.27;81.34;100728.13;10588441;28;20047;-85
2022/08/06 19:30:09;;;;;;;1.40;0.85;;;;;;;18.19;81.72;100734.50;10576667;28;20051;-84
2022/08/06 19:35:11;;;;;;;2.70;1.20;;;;;;;18.14;82.00;100728.31;10576837;28;20047;-84
2022/08/06 19:45:33;;;;;;;4.75;1.50;;;;;;;17.76;83.18;100732.63;10583432;28;20489;-82
2022/08/06 19:50:37;;;;;;;1.75;1.00;;;;;;;17.77;83.08;100731.47;10605050;28;20524;-82
2022/08/06 19:55:51;;;;;;;1.20;1.10;;;;;;;17.82;83.24;100726.91;10609748;28;20052;-83
2022/08/06 20:00:55;;;;;;;2.50;1.13;;;;;;;17.67;83.61;100719.84;10596772;28;20415;-82
2022/08/06 20:06:09;;;;;;;1.27;0.98;;;;;;;17.73;83.46;100738.84;10593552;28;20035;-83
2022/08/06 20:11:12;;;;;;;2.58;0.90;;;;;;;17.87;83.37;100758.06;10578315;28;20043;-85
2022/08/06 20:16:14;;;;;;;1.67;1.00;;;;;;;17.86;82.94;100758.41;10611760;28;20043;-88
2022/08/06 20:21:16;;;;;;;1.25;1.00;;;;;;;17.95;82.56;100764.78;10591133;28;20039;-84
2022/08/06 20:26:18;;;;;;;1.58;1.00;;;;;;;17.97;82.30;100766.09;10594857;28;20047;-92
2022/08/06 20:31:21;;;;;;;1.85;1.27;;;;;;;18.03;81.80;100775.06;10593419;28;20390;-84
2022/08/06 20:36:24;;;;;;;2.70;1.00;;;;;;;17.91;81.98;100775.72;10595745;28;20237;-82
2022/08/06 20:41:29;;;;;;;1.85;1.10;;;;;;;18.07;81.21;100776.06;10611670;28;20127;-81
2022/08/06 20:46:32;;;;;;;2.63;1.15;;;;;;;18.24;80.40;100792.69;10609500;28;20040;-80
2022/08/06 20:51:34;;;;;;;7.95;1.60;;;;;;;18.16;80.12;100798.25;10615171;28;20047;-84
2022/08/06 20:56:36;;;;;;;1.77;1.00;;;;;;;18.19;80.42;100798.41;10565973;28;20039;-82
2022/08/06 21:01:39;;;;;;;5.15;1.23;;;;;;;18.29;79.52;100805.59;10567176;28;20417;-82
2022/08/06 21:06:41;;;;;;;1.83;0.75;;;;;;;18.29;79.02;100814.75;10591273;28;20032;-81
2022/08/06 21:11:43;;;;;;;4.55;1.35;;;;;;;18.30;78.55;100821.94;10570180;28;20044;-81
2022/08/06 21:16:51;;;;;;;1.90;1.30;;;;;;;18.38;78.06;100845.28;10573077;28;20107;-80
2022/08/06 21:21:53;;;;;;;3.63;1.57;;;;;;;18.17;78.13;100847.91;10594525;28;20055;-82
2022/08/06 21:26:55;;;;;;;4.55;1.30;;;;;;;18.11;77.49;100848.41;10553456;28;20054;-83
2022/08/06 21:31:58;;;;;;;2.20;1.42;;;;;;;18.01;77.29;100849.53;10576676;28;20036;-82
2022/08/06 21:37:04;;;;;;;2.35;0.80;;;;;;;17.93;77.19;100850.38;10569210;28;20043;-84
2022/08/06 21:42:06;;;;;;;5.78;1.10;;;;;;;17.71;76.96;100857.69;10564337;28;20047;-78
2022/08/06 21:47:08;;;;;;;1.17;0.90;;;;;;;18.02;77.18;100856.72;10606351;28;20059;-78
2022/08/06 21:52:10;;;;;;;2.10;1.00;;;;;;;18.10;77.12;100849.56;10605190;28;20434;-79
2022/08/06 21:57:12;;;;;;;1.85;0.98;;;;;;;18.14;76.88;100845.78;10606505;28;20047;-78
2022/08/06 22:02:14;;;;;;;2.85;1.05;;;;;;;18.29;76.49;100852.81;10589374;28;21040;-82
2022/08/06 22:07:17;;;;;;;0.98;0.80;;;;;;;18.37;76.42;100861.13;10566665;28;20039;-80
2022/08/06 22:12:19;;;;;;;2.53;1.00;;;;;;;18.24;76.20;100855.78;10580580;28;20059;-80
2022/08/06 22:17:22;;;;;;;2.28;0.90;;;;;;;18.08;76.39;100864.59;10611190;28;20505;-79
2022/08/06 22:22:24;;;;;;;2.80;1.08;;;;;;;18.06;76.32;100872.44;10571790;28;20039;-79
2022/08/06 22:27:26;;;;;;;1.45;0.90;;;;;;;17.96;76.13;100877.47;10600172;28;20413;-78
2022/08/06 22:32:28;;;;;;;2.45;1.00;;;;;;;17.94;76.54;100880.56;10600259;28;20042;-79
2022/08/06 22:37:30;;;;;;;1.98;1.10;;;;;;;17.88;76.28;100883.84;10584698;28;20069;-78
2022/08/06 22:42:35;;;;;;;0.80;0.80;;;;;;;17.65;76.81;100872.81;10575333;28;20046;-76
2022/08/06 22:47:38;;;;;;;0.73;0.73;;;;;;;17.62;77.54;100884.56;10610012;28;20425;-78
2022/08/06 22:52:40;;;;;;;3.45;1.20;;;;;;;17.67;77.63;100887.19;10591429;28;20035;-76
2022/08/06 22:57:42;;;;;;;1.05;0.80;;;;;;;17.70;77.67;100883.81;10580384;28;20039;-75
2022/08/06 23:02:44;;;;;;;2.75;0.90;;;;;;;17.73;77.39;100896.22;10585744;28;20073;-77
2022/08/06 23:07:46;;;;;;;1.65;0.80;;;;;;;17.58;77.40;100894.69;10578503;28;20039;-77
2022/08/06 23:12:51;;;;;;;1.00;0.90;;;;;;;17.41;77.19;100889.06;10608855;28;20043;-77
2022/08/06 23:17:53;;;;;;;1.40;0.93;;;;;;;17.48;77.23;100900.50;10609168;28;20046;-78
2022/08/06 23:22:55;;;;;;;1.75;1.00;;;;;;;17.51;76.72;100899.03;10598753;28;20514;-77
2022/08/06 23:27:57;;;;;;;1.10;0.70;;;;;;;17.32;77.38;100900.13;10609678;28;20047;-78
2022/08/06 23:33:00;;;;;;;1.20;0.70;;;;;;;17.32;77.49;100910.41;10597789;28;20497;-77